Time;durP1;ratioP1;P1;durP2;ratioP2;P2;SDS_P1;SDS_P2;PMS_P1;PMS_P2;Temp;Humidity;BMP_temperature;BMP_pressure;BME280_temperature;BME280_humidity;BME280_pressure;Samples;Min_cycle;Max_cycle;Signal;HPM_P1;HPM_P2
2021/03/16 00:00:50;;;;;;;5.80;1.90;;;;;;;;;;5083898;28;20990;-65
2021/03/16 00:03:34;;;;;;;4.85;1.50;;;;;;;;;;5084603;28;20640;-70
2021/03/16 00:06:15;;;;;;;5.18;1.50;;;;;;;;;;5062742;28;20067;-64
2021/03/16 00:08:40;;;;;;;5.63;1.67;;;;;;;;;;5069264;28;20041;-63
2021/03/16 00:11:06;;;;;;;3.53;1.20;;;;;;;;;;5084764;28;20526;-63
2021/03/16 00:13:31;;;;;;;6.00;1.63;;;;;;;;;;5057298;28;20040;-65
2021/03/16 00:15:57;;;;;;;5.63;1.30;;;;;;;;;;5088362;28;20669;-66
2021/03/16 00:18:22;;;;;;;4.95;1.75;;;;;;;;;;5087798;28;20049;-66
2021/03/16 00:20:48;;;;;;;4.20;1.30;;;;;;;;;;5049399;28;20525;-65
2021/03/16 00:23:13;;;;;;;5.28;1.42;;;;;;;;;;5059078;28;20040;-63
2021/03/16 00:25:39;;;;;;;4.30;1.23;;;;;;;;;;5075663;28;20055;-62
2021/03/16 00:28:05;;;;;;;4.68;1.38;;;;;;;;;;5086658;28;20495;-69
2021/03/16 00:30:31;;;;;;;4.35;1.27;;;;;;;;;;5059262;28;20772;-67
2021/03/16 00:32:56;;;;;;;5.10;1.42;;;;;;;;;;5053039;28;20596;-64
2021/03/16 00:35:22;;;;;;;5.60;1.60;;;;;;;;;;5077394;28;20048;-65
2021/03/16 00:37:47;;;;;;;5.22;1.42;;;;;;;;;;5076808;28;20094;-65
2021/03/16 00:40:13;;;;;;;3.33;1.20;;;;;;;;;;5051784;28;20041;-66
2021/03/16 00:42:39;;;;;;;5.43;1.52;;;;;;;;;;5086193;28;20520;-63
2021/03/16 00:45:05;;;;;;;4.10;1.20;;;;;;;;;;5066507;28;20036;-65
2021/03/16 00:47:31;;;;;;;3.83;1.40;;;;;;;;;;5058888;28;20057;-62
2021/03/16 00:49:57;;;;;;;4.32;1.33;;;;;;;;;;5067029;28;20048;-70
2021/03/16 00:52:22;;;;;;;5.50;1.33;;;;;;;;;;5086013;28;20556;-67
2021/03/16 00:54:49;;;;;;;4.53;1.33;;;;;;;;;;5086450;28;20048;-62
2021/03/16 00:57:14;;;;;;;5.38;1.48;;;;;;;;;;5077210;28;20040;-66
2021/03/16 00:59:40;;;;;;;5.50;1.35;;;;;;;;;;5086055;28;20449;-67
2021/03/16 01:02:06;;;;;;;3.97;1.20;;;;;;;;;;5086583;28;20084;-65
2021/03/16 01:04:32;;;;;;;4.13;1.45;;;;;;;;;;5087032;28;20565;-64
2021/03/16 01:06:57;;;;;;;4.38;1.38;;;;;;;;;;5088100;28;20048;-62
2021/03/16 01:09:23;;;;;;;3.28;1.30;;;;;;;;;;5061144;28;20114;-66
2021/03/16 01:11:48;;;;;;;4.07;1.35;;;;;;;;;;5086368;28;20044;-64
2021/03/16 01:14:14;;;;;;;6.50;1.30;;;;;;;;;;5076646;28;20048;-63
2021/03/16 01:16:39;;;;;;;4.95;1.42;;;;;;;;;;5078338;28;20910;-65
2021/03/16 01:19:05;;;;;;;5.97;1.40;;;;;;;;;;5087419;28;20048;-67
2021/03/16 01:21:30;;;;;;;4.78;1.30;;;;;;;;;;5061591;28;20041;-67
2021/03/16 01:23:56;;;;;;;5.82;1.60;;;;;;;;;;5077486;28;20127;-63
2021/03/16 01:26:21;;;;;;;3.88;1.40;;;;;;;;;;5043107;28;20049;-64
2021/03/16 01:28:47;;;;;;;5.32;1.20;;;;;;;;;;5060278;28;20060;-64
2021/03/16 01:31:12;;;;;;;4.97;1.40;;;;;;;;;;5086645;28;20094;-66
2021/03/16 01:33:38;;;;;;;5.50;1.40;;;;;;;;;;5081798;28;20045;-66
2021/03/16 01:36:03;;;;;;;5.18;1.30;;;;;;;;;;5089931;28;20102;-64
2021/03/16 01:38:29;;;;;;;4.85;1.40;;;;;;;;;;5071145;28;20084;-65
2021/03/16 01:40:54;;;;;;;4.53;1.27;;;;;;;;;;5078940;28;20411;-69
2021/03/16 01:43:22;;;;;;;5.00;1.17;;;;;;;;;;5086499;28;20037;-64
2021/03/16 01:45:48;;;;;;;6.60;1.83;;;;;;;;;;5061556;28;20052;-63
2021/03/16 01:48:14;;;;;;;4.60;1.40;;;;;;;;;;5084794;28;20045;-65
2021/03/16 01:50:40;;;;;;;6.05;1.70;;;;;;;;;;5086226;28;20881;-64
2021/03/16 01:53:06;;;;;;;4.10;1.20;;;;;;;;;;5086136;28;20059;-65
2021/03/16 01:55:32;;;;;;;5.90;1.60;;;;;;;;;;5059108;28;20139;-64
2021/03/16 01:57:57;;;;;;;6.13;1.25;;;;;;;;;;5065666;28;20166;-64
2021/03/16 02:00:41;;;;;;;5.18;1.38;;;;;;;;;;5067442;28;20131;-66
2021/03/16 02:03:26;;;;;;;4.93;1.35;;;;;;;;;;5072555;28;20040;-68
2021/03/16 02:06:13;;;;;;;4.05;1.20;;;;;;;;;;5064845;28;20053;-65
2021/03/16 02:09:27;;;;;;;4.07;1.20;;;;;;;;;;5083004;28;20540;-63
2021/03/16 02:12:19;;;;;;;3.65;1.10;;;;;;;;;;5072436;28;20048;-68
2021/03/16 02:15:07;;;;;;;5.85;1.52;;;;;;;;;;5070044;28;20052;-66
2021/03/16 02:17:54;;;;;;;5.40;1.45;;;;;;;;;;5083339;28;20056;-63
2021/03/16 02:20:49;;;;;;;3.63;1.27;;;;;;;;;;5061745;28;20457;-61
2021/03/16 02:23:52;;;;;;;4.72;1.20;;;;;;;;;;5086321;28;20052;-65
2021/03/16 02:26:58;;;;;;;3.97;1.30;;;;;;;;;;5081581;28;20049;-64
2021/03/16 02:29:53;;;;;;;6.00;1.50;;;;;;;;;;5086286;28;20052;-62
2021/03/16 02:32:36;;;;;;;4.32;1.13;;;;;;;;;;5070264;28;20044;-66
2021/03/16 02:35:20;;;;;;;3.33;1.33;;;;;;;;;;5060794;28;20064;-65
2021/03/16 02:38:05;;;;;;;4.78;1.05;;;;;;;;;;5062606;28;20163;-66
2021/03/16 02:40:50;;;;;;;5.43;1.30;;;;;;;;;;5085219;28;20498;-63
2021/03/16 02:43:34;;;;;;;4.60;1.17;;;;;;;;;;5069256;28;20048;-66
2021/03/16 02:46:18;;;;;;;4.57;1.23;;;;;;;;;;5060484;28;20481;-66
2021/03/16 02:49:02;;;;;;;4.20;1.40;;;;;;;;;;5076427;28;20052;-64
2021/03/16 02:51:46;;;;;;;4.45;1.33;;;;;;;;;;5062173;28;20103;-62
2021/03/16 02:54:30;;;;;;;5.10;1.25;;;;;;;;;;5060809;28;20052;-64
2021/03/16 02:57:15;;;;;;;5.20;1.20;;;;;;;;;;5081265;28;20072;-62
2021/03/16 03:00:00;;;;;;;3.95;1.35;;;;;;;;;;5062988;28;20528;-63
2021/03/16 03:02:47;;;;;;;5.82;1.50;;;;;;;;;;5084527;28;20143;-63
2021/03/16 03:05:32;;;;;;;3.40;1.15;;;;;;;;;;5067958;28;20518;-61
2021/03/16 03:08:16;;;;;;;3.85;1.00;;;;;;;;;;5084524;28;20049;-67
2021/03/16 03:11:01;;;;;;;4.47;1.45;;;;;;;;;;5077305;28;20139;-65
2021/03/16 03:13:45;;;;;;;3.92;1.27;;;;;;;;;;5078793;28;20044;-62
2021/03/16 03:16:29;;;;;;;5.07;1.30;;;;;;;;;;5085497;28;20080;-66
2021/03/16 03:19:13;;;;;;;3.70;1.10;;;;;;;;;;5060236;28;20044;-65
2021/03/16 03:22:16;;;;;;;3.38;1.30;;;;;;;;;;5085796;28;20107;-62
2021/03/16 03:25:06;;;;;;;5.22;1.38;;;;;;;;;;5083289;28;20124;-64
2021/03/16 03:28:00;;;;;;;3.05;0.80;;;;;;;;;;5081401;28;20545;-62
2021/03/16 03:30:44;;;;;;;4.55;1.20;;;;;;;;;;5075376;28;20057;-62
2021/03/16 03:33:29;;;;;;;4.97;1.50;;;;;;;;;;5066295;28;20515;-64
2021/03/16 03:36:13;;;;;;;5.15;1.33;;;;;;;;;;5062630;28;20952;-63
2021/03/16 03:38:57;;;;;;;5.32;1.30;;;;;;;;;;5063205;28;20056;-63
2021/03/16 03:41:41;;;;;;;4.53;1.10;;;;;;;;;;5060701;28;20076;-65
2021/03/16 03:44:25;;;;;;;4.63;1.30;;;;;;;;;;5046577;28;20053;-66
2021/03/16 03:47:09;;;;;;;4.00;1.20;;;;;;;;;;5060937;28;20056;-64
2021/03/16 03:49:53;;;;;;;4.68;1.10;;;;;;;;;;5067402;28;20064;-66
2021/03/16 03:52:37;;;;;;;3.63;1.17;;;;;;;;;;5064664;28;20049;-63
2021/03/16 03:55:21;;;;;;;4.68;1.23;;;;;;;;;;5063877;28;20095;-64
2021/03/16 03:58:05;;;;;;;3.47;1.10;;;;;;;;;;5086557;28;20048;-67
2021/03/16 04:00:49;;;;;;;3.08;1.30;;;;;;;;;;5070514;28;20091;-63
2021/03/16 04:03:33;;;;;;;4.38;1.50;;;;;;;;;;5064125;28;20036;-62
2021/03/16 04:06:17;;;;;;;4.50;1.25;;;;;;;;;;5064930;28;20056;-63
2021/03/16 04:09:01;;;;;;;4.53;1.40;;;;;;;;;;5060778;28;20110;-64
2021/03/16 04:11:45;;;;;;;4.00;1.20;;;;;;;;;;5088095;28;20896;-63
2021/03/16 04:14:29;;;;;;;3.85;1.25;;;;;;;;;;5078520;28;20048;-64
2021/03/16 04:17:13;;;;;;;5.13;1.63;;;;;;;;;;5065004;28;20094;-66
2021/03/16 04:19:57;;;;;;;4.43;1.38;;;;;;;;;;5065948;28;20044;-66
2021/03/16 04:22:42;;;;;;;3.35;1.23;;;;;;;;;;5087457;28;20048;-64
2021/03/16 04:25:26;;;;;;;8.27;1.50;;;;;;;;;;5062745;28;20127;-63
2021/03/16 04:28:10;;;;;;;3.25;1.10;;;;;;;;;;5087326;28;20049;-64
2021/03/16 04:30:54;;;;;;;4.45;1.35;;;;;;;;;;5081925;28;20040;-67
2021/03/16 04:33:38;;;;;;;4.70;1.40;;;;;;;;;;5087833;28;20045;-62
2021/03/16 04:36:21;;;;;;;5.90;1.50;;;;;;;;;;5080241;28;20056;-62
2021/03/16 04:39:05;;;;;;;5.15;1.40;;;;;;;;;;5078062;28;20052;-66
2021/03/16 04:41:49;;;;;;;4.20;1.30;;;;;;;;;;5089822;28;20049;-63
2021/03/16 04:44:34;;;;;;;6.22;1.40;;;;;;;;;;5086835;28;20860;-62
2021/03/16 04:47:17;;;;;;;4.35;1.52;;;;;;;;;;5079278;28;20056;-66
2021/03/16 04:50:02;;;;;;;4.72;1.60;;;;;;;;;;5084821;28;20131;-62
2021/03/16 04:52:46;;;;;;;3.40;1.40;;;;;;;;;;5088220;28;20048;-66
2021/03/16 04:55:30;;;;;;;3.58;0.98;;;;;;;;;;5087076;28;20501;-66
2021/03/16 04:58:14;;;;;;;4.38;1.38;;;;;;;;;;5076667;28;20048;-62
2021/03/16 05:00:58;;;;;;;3.63;1.20;;;;;;;;;;5080321;28;20037;-64
2021/03/16 05:03:42;;;;;;;4.25;1.40;;;;;;;;;;5087258;28;20044;-62
2021/03/16 05:06:26;;;;;;;4.50;1.80;;;;;;;;;;5079228;28;20048;-65
2021/03/16 05:09:12;;;;;;;5.07;1.67;;;;;;;;;;5075522;28;20143;-63
2021/03/16 05:11:56;;;;;;;3.55;1.58;;;;;;;;;;5086675;28;20049;-63
2021/03/16 05:14:40;;;;;;;3.65;1.23;;;;;;;;;;5087209;28;20049;-62
2021/03/16 05:17:24;;;;;;;2.88;1.13;;;;;;;;;;5069048;28;20049;-66
2021/03/16 05:20:09;;;;;;;5.35;1.95;;;;;;;;;;5086126;28;20048;-65
2021/03/16 05:22:53;;;;;;;6.75;2.38;;;;;;;;;;5072651;28;20049;-64
2021/03/16 05:25:37;;;;;;;5.30;1.98;;;;;;;;;;5068367;28;20061;-62
2021/03/16 05:28:21;;;;;;;5.75;1.60;;;;;;;;;;5066316;28;20053;-66
2021/03/16 05:31:05;;;;;;;4.32;1.52;;;;;;;;;;5064336;28;20041;-66
2021/03/16 05:33:48;;;;;;;4.10;1.80;;;;;;;;;;5088355;28;21054;-64
2021/03/16 05:36:33;;;;;;;6.55;1.95;;;;;;;;;;5086863;28;20577;-67
2021/03/16 05:39:16;;;;;;;5.38;1.83;;;;;;;;;;5059752;28;20049;-63
2021/03/16 05:42:00;;;;;;;3.90;1.85;;;;;;;;;;5086668;28;20044;-63
2021/03/16 05:44:45;;;;;;;4.65;1.38;;;;;;;;;;5057494;28;20048;-64
2021/03/16 05:47:29;;;;;;;4.47;1.40;;;;;;;;;;5074153;28;20057;-67
2021/03/16 05:50:14;;;;;;;2.72;1.08;;;;;;;;;;5066473;28;20045;-65
2021/03/16 05:52:58;;;;;;;4.30;1.52;;;;;;;;;;5078514;28;20049;-64
2021/03/16 05:55:42;;;;;;;4.90;1.45;;;;;;;;;;5061767;28;20074;-64
2021/03/16 05:58:26;;;;;;;4.57;1.40;;;;;;;;;;5085416;28;20522;-66
2021/03/16 06:01:12;;;;;;;4.25;1.33;;;;;;;;;;5077146;28;20500;-64
2021/03/16 06:03:57;;;;;;;3.58;1.20;;;;;;;;;;5083221;28;20048;-62
2021/03/16 06:06:41;;;;;;;5.03;1.27;;;;;;;;;;5061128;28;20049;-63
2021/03/16 06:09:25;;;;;;;4.35;1.30;;;;;;;;;;5063894;28;20052;-66
2021/03/16 06:12:09;;;;;;;3.97;1.10;;;;;;;;;;5076751;28;20056;-66
2021/03/16 06:14:53;;;;;;;4.38;1.33;;;;;;;;;;5087157;28;20053;-69
2021/03/16 06:17:48;;;;;;;3.20;1.20;;;;;;;;;;5086349;28;20037;-68
2021/03/16 06:20:33;;;;;;;4.05;1.30;;;;;;;;;;5085964;28;20052;-66
2021/03/16 06:23:17;;;;;;;5.30;1.52;;;;;;;;;;5084840;28;20504;-68
2021/03/16 06:26:02;;;;;;;3.70;1.23;;;;;;;;;;5067628;28;20068;-66
2021/03/16 06:28:46;;;;;;;3.90;1.33;;;;;;;;;;5083921;28;20135;-63
2021/03/16 06:31:30;;;;;;;4.35;1.30;;;;;;;;;;5074288;28;20040;-63
2021/03/16 06:34:27;;;;;;;4.20;1.30;;;;;;;;;;5085476;28;20048;-65
2021/03/16 06:37:11;;;;;;;2.72;1.05;;;;;;;;;;5076782;28;20490;-62
2021/03/16 06:39:57;;;;;;;6.30;1.33;;;;;;;;;;5085589;28;20048;-63
2021/03/16 06:42:41;;;;;;;3.60;0.95;;;;;;;;;;5085097;28;20566;-63
2021/03/16 06:45:29;;;;;;;3.88;1.40;;;;;;;;;;5063343;28;20056;-65
2021/03/16 06:48:23;;;;;;;3.58;1.13;;;;;;;;;;5067761;28;20049;-65
2021/03/16 06:51:11;;;;;;;4.32;1.20;;;;;;;;;;5079738;28;20052;-64
2021/03/16 06:54:06;;;;;;;4.40;1.05;;;;;;;;;;5086061;28;20398;-63
2021/03/16 06:56:54;;;;;;;4.13;1.08;;;;;;;;;;5077748;28;20053;-63
2021/03/16 06:59:39;;;;;;;4.72;1.27;;;;;;;;;;5084634;28;20048;-66
2021/03/16 07:02:22;;;;;;;2.33;0.90;;;;;;;;;;5060854;28;20048;-65
2021/03/16 07:05:07;;;;;;;5.03;1.65;;;;;;;;;;5076181;28;20495;-64
2021/03/16 07:07:51;;;;;;;4.03;1.15;;;;;;;;;;5058790;28;20560;-63
2021/03/16 07:10:35;;;;;;;4.40;1.23;;;;;;;;;;5064388;28;20052;-66
2021/03/16 07:13:19;;;;;;;4.68;1.10;;;;;;;;;;5060403;28;20044;-65
2021/03/16 07:16:05;;;;;;;5.15;1.40;;;;;;;;;;5057759;28;20868;-73
2021/03/16 07:18:49;;;;;;;4.45;1.40;;;;;;;;;;5078535;28;20048;-62
2021/03/16 07:21:40;;;;;;;4.65;1.35;;;;;;;;;;5078323;28;20041;-63
2021/03/16 07:24:30;;;;;;;6.00;1.17;;;;;;;;;;5085617;28;20044;-74
2021/03/16 07:27:13;;;;;;;4.60;1.02;;;;;;;;;;5076990;28;20080;-66
2021/03/16 07:29:58;;;;;;;4.50;1.15;;;;;;;;;;5084497;28;20048;-67
2021/03/16 07:32:42;;;;;;;3.88;0.93;;;;;;;;;;5061746;28;20048;-65
2021/03/16 07:35:26;;;;;;;3.40;0.95;;;;;;;;;;5067939;28;20053;-71
2021/03/16 07:38:10;;;;;;;5.50;1.27;;;;;;;;;;5079477;28;20048;-64
2021/03/16 07:40:54;;;;;;;2.95;0.98;;;;;;;;;;5069811;28;20084;-68
2021/03/16 07:43:41;;;;;;;3.58;1.13;;;;;;;;;;5061229;28;20040;-68
2021/03/16 07:47:02;;;;;;;3.53;1.30;;;;;;;;;;5083491;28;20510;-72
2021/03/16 07:49:46;;;;;;;4.47;1.33;;;;;;;;;;5077222;28;20053;-66
2021/03/16 07:52:31;;;;;;;4.60;1.35;;;;;;;;;;5083242;28;20045;-67
2021/03/16 07:55:27;;;;;;;5.55;1.25;;;;;;;;;;5076378;28;20041;-64
2021/03/16 07:58:12;;;;;;;2.83;0.90;;;;;;;;;;5071898;28;20135;-70
2021/03/16 08:01:05;;;;;;;4.20;1.35;;;;;;;;;;5077316;28;20044;-67
2021/03/16 08:03:50;;;;;;;4.40;1.40;;;;;;;;;;5084286;28;20045;-65
2021/03/16 08:06:36;;;;;;;3.08;1.05;;;;;;;;;;5083578;28;20049;-70
2021/03/16 08:09:23;;;;;;;2.83;0.90;;;;;;;;;;5046353;28;20053;-71
2021/03/16 08:12:19;;;;;;;3.35;1.25;;;;;;;;;;5083596;28;20195;-69
2021/03/16 08:15:13;;;;;;;2.50;0.98;;;;;;;;;;5077355;28;20103;-65
2021/03/16 08:18:00;;;;;;;3.95;1.17;;;;;;;;;;5052270;28;20072;-70
2021/03/16 08:20:46;;;;;;;5.95;1.20;;;;;;;;;;5083263;28;20045;-66
2021/03/16 08:23:31;;;;;;;4.38;1.10;;;;;;;;;;5083701;28;20041;-65
2021/03/16 08:26:15;;;;;;;3.45;1.17;;;;;;;;;;5072653;28;20502;-67
2021/03/16 08:28:59;;;;;;;4.03;1.30;;;;;;;;;;5081666;28;20137;-69
2021/03/16 08:31:43;;;;;;;2.42;1.02;;;;;;;;;;5083620;28;20048;-66
2021/03/16 08:34:29;;;;;;;3.00;0.80;;;;;;;;;;5075838;28;20040;-70
2021/03/16 08:37:22;;;;;;;1.88;0.60;;;;;;;;;;5087409;28;20045;-69
2021/03/16 08:40:08;;;;;;;1.67;0.60;;;;;;;;;;5085158;28;20048;-66
2021/03/16 08:42:52;;;;;;;1.52;0.70;;;;;;;;;;5069351;28;20083;-63
2021/03/16 08:45:36;;;;;;;1.65;0.60;;;;;;;;;;5076547;28;20049;-67
2021/03/16 08:48:28;;;;;;;1.58;0.60;;;;;;;;;;5068067;28;20049;-67
2021/03/16 08:51:11;;;;;;;1.65;0.70;;;;;;;;;;5084973;28;20052;-64
2021/03/16 08:53:55;;;;;;;1.95;0.70;;;;;;;;;;5065258;28;20545;-67
2021/03/16 08:56:39;;;;;;;1.98;0.60;;;;;;;;;;5080654;28;20040;-65
2021/03/16 08:59:23;;;;;;;1.15;0.60;;;;;;;;;;5060912;28;20060;-64
2021/03/16 09:02:07;;;;;;;2.53;0.90;;;;;;;;;;5066047;28;20049;-69
2021/03/16 09:04:51;;;;;;;2.33;0.80;;;;;;;;;;5089588;28;20053;-68
2021/03/16 09:07:36;;;;;;;3.80;0.93;;;;;;;;;;5082414;28;20040;-69
2021/03/16 09:10:21;;;;;;;2.17;0.82;;;;;;;;;;5088484;28;20045;-68
2021/03/16 09:13:05;;;;;;;2.42;0.82;;;;;;;;;;5088426;28;20434;-65
2021/03/16 09:15:50;;;;;;;2.65;0.88;;;;;;;;;;5087472;28;20549;-65
2021/03/16 09:18:34;;;;;;;3.35;1.05;;;;;;;;;;5087076;28;20048;-69
2021/03/16 09:21:18;;;;;;;3.50;1.08;;;;;;;;;;5067055;28;20048;-65
2021/03/16 09:24:03;;;;;;;2.60;1.02;;;;;;;;;;5086881;28;20068;-66
2021/03/16 09:27:01;;;;;;;2.03;0.90;;;;;;;;;;5065181;28;20128;-65
2021/03/16 09:29:45;;;;;;;3.15;1.00;;;;;;;;;;5057156;28;20044;-68
2021/03/16 09:32:29;;;;;;;2.13;0.93;;;;;;;;;;5078209;28;20072;-65
2021/03/16 09:35:14;;;;;;;2.58;0.93;;;;;;;;;;5068535;28;20482;-63
2021/03/16 09:37:59;;;;;;;2.47;1.08;;;;;;;;;;5086491;28;20040;-68
2021/03/16 09:40:47;;;;;;;3.03;1.05;;;;;;;;;;5058888;28;20537;-68
2021/03/16 09:43:31;;;;;;;2.25;0.95;;;;;;;;;;5078751;28;20040;-70
2021/03/16 09:45:58;;;;;;;3.55;1.20;;;;;;;;;;5068917;28;20067;-67
2021/03/16 09:48:24;;;;;;;4.03;1.40;;;;;;;;;;5082947;28;20055;-68
2021/03/16 09:50:49;;;;;;;3.05;1.23;;;;;;;;;;5052050;28;20051;-63
2021/03/16 09:53:16;;;;;;;4.72;1.70;;;;;;;;;;5053282;28;20793;-67
2021/03/16 09:55:42;;;;;;;2.72;1.23;;;;;;;;;;5085893;28;20071;-66
2021/03/16 09:58:21;;;;;;;4.72;1.10;;;;;;;;;;5041203;28;20049;-65
2021/03/16 10:00:48;;;;;;;2.75;0.90;;;;;;;;;;5077648;28;20457;-64
2021/03/16 10:03:14;;;;;;;3.88;1.35;;;;;;;;;;5051358;28;20086;-64
2021/03/16 10:05:40;;;;;;;2.75;1.00;;;;;;;;;;5059959;28;20044;-63
2021/03/16 10:08:05;;;;;;;3.55;1.23;;;;;;;;;;5067187;28;20045;-66
2021/03/16 10:10:33;;;;;;;5.95;1.88;;;;;;;;;;5060394;28;20103;-65
2021/03/16 10:13:03;;;;;;;3.30;1.33;;;;;;;;;;5084395;28;20616;-63
2021/03/16 10:15:30;;;;;;;2.85;0.90;;;;;;;;;;5074248;28;20055;-63
2021/03/16 10:18:00;;;;;;;3.78;1.05;;;;;;;;;;5048318;28;20960;-65
2021/03/16 10:20:30;;;;;;;3.00;1.00;;;;;;;;;;5082336;28;20078;-67
2021/03/16 10:22:57;;;;;;;2.63;0.77;;;;;;;;;;5086001;28;20115;-67
2021/03/16 10:25:27;;;;;;;1.83;0.80;;;;;;;;;;5084647;28;20036;-66
2021/03/16 10:27:59;;;;;;;1.88;0.60;;;;;;;;;;5068633;28;20051;-66
2021/03/16 10:30:32;;;;;;;2.65;0.88;;;;;;;;;;5073172;28;20046;-67
2021/03/16 10:32:58;;;;;;;1.75;0.60;;;;;;;;;;5076287;28;20127;-66
2021/03/16 10:35:23;;;;;;;1.88;0.70;;;;;;;;;;5073139;28;20048;-68
2021/03/16 10:37:49;;;;;;;2.70;0.70;;;;;;;;;;5083468;28;20118;-66
2021/03/16 10:40:15;;;;;;;1.90;0.80;;;;;;;;;;5067138;28;20044;-63
2021/03/16 10:42:40;;;;;;;2.25;0.77;;;;;;;;;;5065705;28;20048;-64
2021/03/16 10:45:06;;;;;;;3.17;0.73;;;;;;;;;;5040721;28;20748;-68
2021/03/16 10:47:35;;;;;;;2.53;1.15;;;;;;;;;;5073314;28;20043;-69
2021/03/16 10:50:00;;;;;;;3.22;0.90;;;;;;;;;;5063933;28;20059;-66
2021/03/16 10:52:26;;;;;;;1.52;0.63;;;;;;;;;;5084093;28;20051;-71
2021/03/16 10:54:51;;;;;;;3.35;0.90;;;;;;;;;;5050391;28;20047;-65
2021/03/16 10:57:17;;;;;;;1.98;0.63;;;;;;;;;;5085960;27;20048;-67
2021/03/16 10:59:44;;;;;;;1.70;0.70;;;;;;;;;;5065962;28;20051;-66
2021/03/16 11:02:09;;;;;;;2.10;0.70;;;;;;;;;;5050285;28;20122;-68
2021/03/16 11:04:35;;;;;;;2.00;0.80;;;;;;;;;;5077246;28;20070;-69
2021/03/16 11:07:01;;;;;;;4.05;1.17;;;;;;;;;;5069740;28;20533;-69
2021/03/16 11:09:27;;;;;;;1.95;0.70;;;;;;;;;;5054517;28;20509;-69
2021/03/16 11:11:52;;;;;;;2.28;0.90;;;;;;;;;;5082364;28;20044;-68
2021/03/16 11:14:18;;;;;;;1.83;0.80;;;;;;;;;;5039731;28;20051;-66
2021/03/16 11:16:43;;;;;;;2.03;0.70;;;;;;;;;;5049386;28;20044;-66
2021/03/16 11:19:09;;;;;;;1.95;0.65;;;;;;;;;;5065554;28;20040;-66
2021/03/16 11:21:35;;;;;;;1.73;0.75;;;;;;;;;;5047905;28;20582;-70
2021/03/16 11:24:00;;;;;;;3.70;0.80;;;;;;;;;;5076791;28;20051;-66
2021/03/16 11:26:26;;;;;;;1.90;0.80;;;;;;;;;;5084131;28;20048;-69
2021/03/16 11:28:52;;;;;;;1.63;0.80;;;;;;;;;;5055661;28;20049;-64
2021/03/16 11:31:18;;;;;;;1.17;0.70;;;;;;;;;;5056842;28;20091;-64
2021/03/16 11:34:02;;;;;;;2.80;0.82;;;;;;;;;;5063979;28;20036;-65
2021/03/16 11:36:46;;;;;;;2.85;0.70;;;;;;;;;;5082398;28;20044;-65
2021/03/16 11:39:30;;;;;;;2.53;0.73;;;;;;;;;;5073514;28;20052;-65
2021/03/16 11:42:15;;;;;;;2.35;0.88;;;;;;;;;;5085156;28;20127;-62
2021/03/16 11:44:58;;;;;;;1.95;0.70;;;;;;;;;;5076409;28;20091;-63
2021/03/16 11:47:43;;;;;;;2.03;0.75;;;;;;;;;;5069976;28;20056;-63
2021/03/16 11:50:26;;;;;;;1.67;0.73;;;;;;;;;;5062237;28;20048;-62
2021/03/16 11:53:10;;;;;;;2.42;0.90;;;;;;;;;;5084576;28;20478;-63
2021/03/16 11:55:55;;;;;;;2.13;0.70;;;;;;;;;;5086131;28;20048;-66
2021/03/16 11:58:38;;;;;;;1.63;0.68;;;;;;;;;;5085832;28;20131;-63
2021/03/16 12:01:22;;;;;;;3.67;0.93;;;;;;;;;;5084242;28;20048;-62
2021/03/16 12:04:06;;;;;;;2.90;1.00;;;;;;;;;;5083218;28;20040;-64
2021/03/16 12:06:51;;;;;;;3.50;1.10;;;;;;;;;;5065926;28;20414;-65
2021/03/16 12:09:36;;;;;;;3.95;1.30;;;;;;;;;;5086754;28;20048;-66
2021/03/16 12:12:20;;;;;;;3.33;1.35;;;;;;;;;;5086418;28;20084;-64
2021/03/16 12:15:08;;;;;;;5.20;1.10;;;;;;;;;;5084902;28;20099;-65
2021/03/16 12:17:53;;;;;;;2.83;1.30;;;;;;;;;;5048523;28;20060;-66
2021/03/16 12:20:37;;;;;;;1.90;0.93;;;;;;;;;;5076240;28;20045;-70
2021/03/16 12:23:23;;;;;;;4.47;1.27;;;;;;;;;;5077569;28;20123;-64
2021/03/16 12:26:07;;;;;;;3.35;1.23;;;;;;;;;;5086547;28;20053;-66
2021/03/16 12:28:51;;;;;;;4.47;1.00;;;;;;;;;;5071382;28;20131;-65
2021/03/16 12:31:35;;;;;;;2.03;0.95;;;;;;;;;;5062891;28;20044;-65
2021/03/16 12:34:19;;;;;;;2.50;1.17;;;;;;;;;;5048119;28;20056;-66
2021/03/16 12:37:04;;;;;;;2.83;1.15;;;;;;;;;;5085187;28;20120;-66
2021/03/16 12:39:48;;;;;;;1.92;0.60;;;;;;;;;;5079413;28;20044;-65
2021/03/16 12:42:32;;;;;;;1.00;0.50;;;;;;;;;;5087276;28;20052;-67
2021/03/16 12:45:16;;;;;;;1.33;0.57;;;;;;;;;;5077617;28;20052;-66
2021/03/16 12:48:01;;;;;;;1.77;0.65;;;;;;;;;;5065559;28;20584;-65
2021/03/16 12:50:44;;;;;;;1.67;0.65;;;;;;;;;;5075675;28;20053;-64
2021/03/16 12:53:28;;;;;;;1.13;0.50;;;;;;;;;;5085507;28;20052;-62
2021/03/16 12:56:13;;;;;;;1.80;0.50;;;;;;;;;;5085006;28;20060;-67
2021/03/16 12:58:57;;;;;;;3.22;1.05;;;;;;;;;;5062764;28;20048;-64
2021/03/16 13:01:41;;;;;;;2.67;1.27;;;;;;;;;;5087017;28;20044;-65
2021/03/16 13:04:27;;;;;;;3.42;1.00;;;;;;;;;;5079172;28;20064;-66
2021/03/16 13:07:11;;;;;;;2.75;1.10;;;;;;;;;;5085177;28;20057;-65
2021/03/16 13:09:55;;;;;;;2.50;1.13;;;;;;;;;;5086352;28;20934;-65
2021/03/16 13:12:39;;;;;;;4.53;1.58;;;;;;;;;;5085008;28;20045;-67
2021/03/16 13:15:23;;;;;;;1.73;1.00;;;;;;;;;;5067068;28;20048;-66
2021/03/16 13:18:07;;;;;;;2.45;0.95;;;;;;;;;;5079522;28;20884;-65
2021/03/16 13:20:51;;;;;;;1.88;0.60;;;;;;;;;;5084810;28;20053;-65
2021/03/16 13:23:35;;;;;;;1.58;0.60;;;;;;;;;;5057364;28;20057;-63
2021/03/16 13:26:19;;;;;;;2.15;0.60;;;;;;;;;;5074602;28;20045;-63
2021/03/16 13:29:02;;;;;;;1.25;0.50;;;;;;;;;;5075149;28;20040;-66
2021/03/16 13:31:47;;;;;;;2.05;0.65;;;;;;;;;;5084906;28;20053;-63
2021/03/16 13:34:31;;;;;;;0.90;0.40;;;;;;;;;;5075644;28;20721;-65
2021/03/16 13:37:16;;;;;;;1.38;0.57;;;;;;;;;;5059472;28;20053;-65
2021/03/16 13:40:00;;;;;;;2.05;0.80;;;;;;;;;;5081624;28;20052;-62
2021/03/16 13:42:44;;;;;;;2.88;0.80;;;;;;;;;;5075360;28;20754;-65
2021/03/16 13:45:28;;;;;;;1.73;0.73;;;;;;;;;;5074013;28;20137;-65
2021/03/16 13:48:12;;;;;;;2.10;0.70;;;;;;;;;;5083746;28;20528;-63
2021/03/16 13:50:56;;;;;;;3.00;0.73;;;;;;;;;;5085592;28;20056;-64
2021/03/16 13:53:40;;;;;;;2.35;0.73;;;;;;;;;;5064355;28;20044;-66
2021/03/16 13:56:24;;;;;;;2.70;0.80;;;;;;;;;;5061620;28;20052;-65
2021/03/16 13:59:08;;;;;;;3.05;0.80;;;;;;;;;;5075312;28;20072;-64
2021/03/16 14:01:52;;;;;;;2.38;0.63;;;;;;;;;;5086546;28;20163;-65
2021/03/16 14:04:36;;;;;;;1.92;0.80;;;;;;;;;;5086482;28;20913;-67
2021/03/16 14:07:20;;;;;;;2.35;0.75;;;;;;;;;;5086185;28;20131;-65
2021/03/16 14:10:04;;;;;;;2.40;0.80;;;;;;;;;;5066823;28;20041;-64
2021/03/16 14:12:48;;;;;;;2.70;0.80;;;;;;;;;;5060649;28;20048;-64
2021/03/16 14:15:33;;;;;;;1.20;0.60;;;;;;;;;;5061921;28;20080;-67
2021/03/16 14:18:17;;;;;;;2.13;0.60;;;;;;;;;;5075367;28;20057;-66
2021/03/16 14:21:01;;;;;;;1.75;0.60;;;;;;;;;;5047728;28;20483;-64
2021/03/16 14:23:45;;;;;;;2.05;0.60;;;;;;;;;;5085631;28;20044;-63
2021/03/16 14:26:29;;;;;;;3.60;0.90;;;;;;;;;;5087518;28;20048;-65
2021/03/16 14:29:12;;;;;;;2.20;0.73;;;;;;;;;;5064147;28;20049;-66
2021/03/16 14:31:56;;;;;;;2.90;0.70;;;;;;;;;;5085428;28;20544;-65
2021/03/16 14:34:40;;;;;;;2.10;0.65;;;;;;;;;;5069277;28;20483;-63
2021/03/16 14:37:24;;;;;;;3.47;1.13;;;;;;;;;;5060916;28;20558;-66
2021/03/16 14:40:12;;;;;;;3.20;0.80;;;;;;;;;;5084126;28;20049;-64
2021/03/16 14:42:56;;;;;;;2.67;0.75;;;;;;;;;;5086060;28;20491;-67
2021/03/16 14:45:40;;;;;;;2.95;0.77;;;;;;;;;;5086137;28;20931;-62
2021/03/16 14:48:24;;;;;;;2.30;0.60;;;;;;;;;;5044560;28;20048;-66
2021/03/16 14:51:08;;;;;;;1.52;0.50;;;;;;;;;;5083506;28;20052;-64
2021/03/16 14:53:52;;;;;;;1.67;0.63;;;;;;;;;;5084277;28;20048;-63
2021/03/16 14:56:36;;;;;;;2.53;0.90;;;;;;;;;;5084745;28;20052;-67
2021/03/16 14:59:20;;;;;;;2.05;0.60;;;;;;;;;;5078250;28;20056;-66
2021/03/16 15:02:04;;;;;;;1.40;0.50;;;;;;;;;;5083262;28;20600;-65
2021/03/16 15:04:48;;;;;;;1.70;0.60;;;;;;;;;;5085910;28;20049;-63
2021/03/16 15:07:31;;;;;;;2.35;0.70;;;;;;;;;;5065174;28;20048;-63
2021/03/16 15:10:15;;;;;;;1.80;0.63;;;;;;;;;;5076183;28;20115;-66
2021/03/16 15:13:00;;;;;;;2.08;0.60;;;;;;;;;;5079528;28;20052;-67
2021/03/16 15:15:44;;;;;;;2.10;0.65;;;;;;;;;;5060694;28;20171;-64
2021/03/16 15:18:28;;;;;;;0.82;0.52;;;;;;;;;;5084731;28;20565;-70
2021/03/16 15:21:12;;;;;;;1.25;0.60;;;;;;;;;;5084768;28;20056;-63
2021/03/16 15:23:57;;;;;;;2.63;0.70;;;;;;;;;;5084312;28;20052;-68
2021/03/16 15:26:41;;;;;;;2.17;0.70;;;;;;;;;;5084136;28;20048;-65
2021/03/16 15:29:25;;;;;;;3.38;1.00;;;;;;;;;;5082910;28;20048;-71
2021/03/16 15:32:09;;;;;;;3.17;0.70;;;;;;;;;;5075347;28;20049;-69
2021/03/16 15:34:53;;;;;;;2.47;0.90;;;;;;;;;;5079194;28;20135;-68
2021/03/16 15:37:37;;;;;;;1.88;0.90;;;;;;;;;;5085746;28;20420;-67
2021/03/16 15:40:21;;;;;;;2.13;0.80;;;;;;;;;;5073926;28;20045;-66
2021/03/16 15:43:06;;;;;;;1.95;0.70;;;;;;;;;;5085247;28;20044;-71
2021/03/16 15:45:50;;;;;;;1.42;0.77;;;;;;;;;;5083490;28;20061;-68
2021/03/16 15:48:34;;;;;;;1.63;0.60;;;;;;;;;;5085467;28;20045;-63
2021/03/16 15:51:18;;;;;;;1.95;0.60;;;;;;;;;;5086406;28;20044;-66
2021/03/16 15:54:02;;;;;;;3.00;0.80;;;;;;;;;;5086314;28;20053;-67
2021/03/16 15:56:46;;;;;;;1.65;0.63;;;;;;;;;;5083668;28;20747;-64
2021/03/16 15:59:30;;;;;;;1.75;0.60;;;;;;;;;;5085976;28;20460;-67
2021/03/16 16:02:14;;;;;;;2.17;0.63;;;;;;;;;;5087942;28;20040;-65